Ercan, Cyprus

3:37 PM EET on November 28, 2014 (GMT +0200)
Ercan | Change Station
CLOSE
Current Station
Airport
Location: Ercan,
Elevation: 299 ft
Nearby Weather Stations

Elev 299 ft 35.15 °N, 33.50 °E | Updated 17 minutes ago

Scattered Clouds
Scattered Clouds
64 °F
Feels Like 64 °F
N
8
Wind Variable Wind from NW

Today
High -- | Low -- °F
--% Chance of Precip.
Yesterday
High -- | Low -- °F
Precip. -- in
6:32 AM 4:34 PM
Waxing Crescent, 40% visible
Pressure 30.18 in
Visibility 6.2 miles
Clouds Few 2500 ft
Scattered Clouds 10000 ft
Dew Point 50 °F
Humidity 59%
Rainfall 0.00 in
Snow Depth Not available.
UV 1 out of 12
Pollen Not available.
Air Quality Not available.
Flu Activity Not available.
METAR LCEN 281320Z 31007KT 9999 FEW025 SCT100 18/10 Q1022 NOSIG

More Conditions Fewer Conditions

Pressure 30.18 in
Visibility 6.2 miles
Clouds Few 2500 ft
Scattered Clouds 10000 ft
Dew Point 50 °F
Humidity 59%
Rainfall 0.00 in
Snow Depth Not available.
UV 1 out of 12
Pollen Not available.
Air Quality Not available.
Flu Activity Not available.
METAR LCEN 281320Z 31007KT 9999 FEW025 SCT100 18/10 Q1022 NOSIG

More Conditions Fewer Conditions

10-Day Weather Forecast

Almanac

Astronomy

Nov. 28, 2014 Rise Set
Actual Time
Civil Twilight
Nautical Twilight
Astronomical Twilight
Moon
Length of Visible Light
Length of Day
Tomorrow will be .
, % of the Moon is Illuminated

Today's Extremes

Country Highs Country Lows

Community

WunderPhotos

Upload Photos

1,774,210 photos uploaded!

WunderBlogs® & News

Nearby

Air Quality

  Air Quality AQ Index Pollutant
Not available.

Snow Depth

Station Depth Elevation

Earthquake Activity

City Distance Mag. Time & Date
Minimum magnitude displayed is 2.5.

Coastal Water Temperatures

Place Temperature

Nearby Weather Stations